Time;durP1;ratioP1;P1;durP2;ratioP2;P2;SDS_P1;SDS_P2;PMS_P1;PMS_P2;Temp;Humidity;BMP_temperature;BMP_pressure;BME280_temperature;BME280_humidity;BME280_pressure;Samples;Min_cycle;Max_cycle;Signal;HPM_P1;HPM_P2
2022/08/21 00:00:19;;;;;;;4.32;1.13;;;16.00;99.90;;;;;;5051280;28;20203;-80
2022/08/21 00:02:51;;;;;;;5.82;1.42;;;16.20;99.90;;;;;;5051741;28;20230;-80
2022/08/21 00:05:22;;;;;;;4.65;1.30;;;16.20;99.90;;;;;;5052106;28;20197;-80
2022/08/21 00:07:53;;;;;;;3.72;1.30;;;16.30;99.90;;;;;;5055587;28;20192;-80
2022/08/21 00:10:25;;;;;;;5.90;1.52;;;16.40;99.90;;;;;;5068370;28;20292;-80
2022/08/21 00:12:57;;;;;;;2.63;0.90;;;16.40;99.90;;;;;;5033599;28;20209;-80
2022/08/21 00:15:31;;;;;;;5.50;1.48;;;16.50;99.90;;;;;;5031200;28;20197;-80
2022/08/21 00:18:02;;;;;;;5.72;1.48;;;16.60;99.90;;;;;;5040592;28;20578;-80
2022/08/21 00:20:33;;;;;;;4.57;1.80;;;16.70;99.90;;;;;;5049855;28;20192;-80
2022/08/21 00:23:05;;;;;;;5.85;1.70;;;16.70;99.90;;;;;;5050922;28;20224;-80
2022/08/21 00:25:36;;;;;;;5.60;1.40;;;16.70;99.90;;;;;;5051930;28;20254;-80
2022/08/21 00:28:10;;;;;;;4.60;1.45;;;16.70;99.90;;;;;;5050555;28;20214;-80
2022/08/21 00:30:42;;;;;;;5.38;1.45;;;16.70;99.90;;;;;;5048584;28;20214;-80
2022/08/21 00:33:13;;;;;;;4.22;1.30;;;16.80;99.90;;;;;;5045287;28;20207;-80
2022/08/21 00:35:45;;;;;;;4.93;1.27;;;16.90;99.90;;;;;;5048802;28;20347;-80
2022/08/21 00:38:16;;;;;;;3.92;1.38;;;17.00;99.90;;;;;;5049173;28;20676;-80
2022/08/21 00:40:51;;;;;;;3.50;1.45;;;17.00;99.90;;;;;;5051449;28;20205;-80
2022/08/21 00:43:29;;;;;;;6.35;1.48;;;17.10;99.90;;;;;;5052912;28;20232;-80
2022/08/21 00:46:00;;;;;;;7.85;1.60;;;17.00;99.90;;;;;;5039529;28;20729;-80
2022/08/21 00:48:31;;;;;;;3.47;1.30;;;17.00;99.90;;;;;;5031675;28;20669;-80
2022/08/21 00:51:05;;;;;;;4.03;0.93;;;16.80;99.90;;;;;;5041253;28;20217;-82
2022/08/21 00:53:38;;;;;;;3.83;1.10;;;16.80;99.90;;;;;;5050826;28;20223;-81
2022/08/21 00:56:11;;;;;;;3.03;0.88;;;16.90;99.90;;;;;;5050389;28;20673;-81
2022/08/21 00:58:45;;;;;;;3.13;0.98;;;17.00;99.90;;;;;;5051048;28;20742;-81
2022/08/21 01:01:16;;;;;;;7.40;1.55;;;17.00;99.90;;;;;;5038023;28;20200;-81
2022/08/21 01:03:47;;;;;;;3.50;1.00;;;17.00;99.90;;;;;;5025302;28;20220;-83
2022/08/21 01:06:18;;;;;;;2.47;0.88;;;17.10;99.90;;;;;;5023267;28;20201;-83
2022/08/21 01:08:49;;;;;;;5.18;1.30;;;17.10;99.90;;;;;;5024721;28;20234;-83
2022/08/21 01:11:20;;;;;;;4.13;1.42;;;17.30;99.90;;;;;;5033810;28;20679;-83
2022/08/21 01:13:54;;;;;;;4.40;0.93;;;17.30;99.90;;;;;;5049624;28;20812;-83
2022/08/21 01:16:26;;;;;;;5.28;1.10;;;17.20;99.90;;;;;;5050751;28;20196;-82
2022/08/21 01:18:57;;;;;;;3.60;0.98;;;17.30;99.90;;;;;;5047165;28;20206;-82
2022/08/21 01:21:30;;;;;;;4.45;1.17;;;17.50;99.90;;;;;;5038849;28;20204;-82
2022/08/21 01:24:01;;;;;;;3.22;0.90;;;17.70;99.90;;;;;;5040588;28;21509;-82
2022/08/21 01:26:35;;;;;;;3.53;0.90;;;17.60;99.90;;;;;;5024094;28;20235;-82
2022/08/21 01:29:11;;;;;;;2.00;0.75;;;17.70;99.90;;;;;;5021489;28;20205;-82
2022/08/21 01:31:42;;;;;;;3.65;0.98;;;17.70;99.90;;;;;;5024288;28;20968;-82
2022/08/21 01:34:15;;;;;;;2.97;0.85;;;17.90;99.90;;;;;;5022734;28;20196;-82
2022/08/21 01:36:49;;;;;;;1.55;0.80;;;18.00;99.90;;;;;;5021702;28;20205;-82
2022/08/21 01:39:20;;;;;;;1.38;0.70;;;18.00;99.90;;;;;;5023531;28;20224;-82
2022/08/21 01:41:50;;;;;;;1.75;0.63;;;18.10;99.90;;;;;;5023218;28;20230;-82
2022/08/21 01:44:24;;;;;;;2.03;0.63;;;18.10;99.90;;;;;;5024839;28;20703;-82
2022/08/21 01:46:55;;;;;;;2.70;0.90;;;18.10;99.90;;;;;;5022979;28;20860;-82
2022/08/21 01:49:25;;;;;;;3.50;0.73;;;18.00;99.90;;;;;;5023444;28;20212;-82
2022/08/21 01:51:59;;;;;;;2.10;0.73;;;18.00;99.90;;;;;;5022507;28;20205;-82
2022/08/21 01:54:29;;;;;;;2.65;0.70;;;18.10;99.90;;;;;;5023812;28;20712;-82
2022/08/21 01:57:02;;;;;;;2.65;0.70;;;18.20;99.90;;;;;;5023655;28;20196;-82
2022/08/21 01:59:33;;;;;;;2.38;0.90;;;18.20;99.90;;;;;;5029115;28;20202;-81
2022/08/21 02:02:04;;;;;;;1.75;0.73;;;18.20;99.90;;;;;;5021743;28;20225;-81
2022/08/21 02:04:36;;;;;;;1.85;0.80;;;18.10;99.90;;;;;;5019551;28;20667;-82
2022/08/21 02:07:08;;;;;;;3.00;0.70;;;18.30;99.90;;;;;;5021897;28;20208;-82
2022/08/21 02:09:41;;;;;;;1.45;0.68;;;18.50;99.90;;;;;;5027630;28;20462;-82
2022/08/21 02:12:13;;;;;;;2.05;0.77;;;18.60;99.90;;;;;;5035291;28;20209;-82
2022/08/21 02:14:43;;;;;;;2.03;1.08;;;18.60;99.90;;;;;;5048471;28;20195;-82
2022/08/21 02:17:14;;;;;;;2.90;0.88;;;18.60;99.90;;;;;;5048314;28;20203;-82
2022/08/21 02:19:45;;;;;;;1.50;1.02;;;18.60;99.90;;;;;;5049265;28;20617;-81
2022/08/21 02:22:18;;;;;;;3.08;0.80;;;18.70;99.90;;;;;;5052409;28;20694;-84
2022/08/21 02:24:49;;;;;;;2.38;0.70;;;18.80;99.90;;;;;;5044676;28;20197;-86
2022/08/21 02:27:19;;;;;;;2.97;0.60;;;18.80;99.90;;;;;;5050996;28;20643;-85
2022/08/21 02:29:51;;;;;;;2.67;0.43;;;18.90;99.90;;;;;;5046261;28;20196;-85
2022/08/21 02:32:22;;;;;;;2.17;0.70;;;18.90;99.90;;;;;;5051625;28;20197;-86
2022/08/21 02:34:53;;;;;;;3.88;0.80;;;18.90;99.90;;;;;;5052457;28;20238;-85
2022/08/21 02:37:27;;;;;;;1.15;0.70;;;18.90;99.90;;;;;;5052172;28;20270;-84
2022/08/21 02:39:57;;;;;;;1.73;0.80;;;18.90;99.90;;;;;;5051174;28;20663;-85
2022/08/21 02:42:28;;;;;;;1.70;0.65;;;18.90;99.90;;;;;;5039563;28;20247;-84
2022/08/21 02:44:59;;;;;;;2.63;0.80;;;18.70;99.90;;;;;;5052558;28;20201;-83
2022/08/21 02:47:30;;;;;;;1.65;0.90;;;18.60;99.90;;;;;;5049288;28;20604;-81
2022/08/21 02:50:00;;;;;;;3.83;0.82;;;18.60;99.90;;;;;;5051510;28;20573;-81
2022/08/21 02:52:34;;;;;;;2.97;0.77;;;18.80;99.90;;;;;;5047904;28;20197;-81
2022/08/21 02:55:05;;;;;;;1.55;0.70;;;18.90;99.90;;;;;;5048902;28;20207;-81
2022/08/21 02:57:36;;;;;;;3.80;1.00;;;19.10;99.90;;;;;;5051269;28;20212;-81
2022/08/21 03:00:09;;;;;;;1.23;0.52;;;19.20;99.90;;;;;;5052226;28;20205;-82
2022/08/21 03:02:40;;;;;;;3.47;0.80;;;19.20;98.20;;;;;;5045439;28;20229;-82
2022/08/21 03:05:15;;;;;;;2.42;0.70;;;19.20;97.20;;;;;;5048741;28;20201;-82
2022/08/21 03:07:52;;;;;;;1.15;0.60;;;19.20;96.70;;;;;;5044099;28;20270;-81
2022/08/21 03:10:24;;;;;;;1.40;0.60;;;19.30;97.70;;;;;;5040822;28;20288;-80
2022/08/21 03:12:57;;;;;;;2.63;0.75;;;19.40;97.40;;;;;;5031176;28;20708;-80
2022/08/21 03:15:28;;;;;;;4.15;0.88;;;19.40;97.90;;;;;;5031654;28;20225;-81
2022/08/21 03:21:37;;;;;;;1.77;0.70;;;19.50;95.20;;;;;;5045768;28;20207;-81
2022/08/21 03:24:13;;;;;;;1.40;0.57;;;19.50;95.70;;;;;;5059041;28;20228;-81
2022/08/21 03:26:47;;;;;;;1.55;0.65;;;19.60;97.00;;;;;;5051993;28;20292;-80
2022/08/21 03:29:23;;;;;;;3.15;0.68;;;19.60;95.00;;;;;;5050458;28;20204;-80
2022/08/21 03:31:56;;;;;;;1.15;0.63;;;19.50;94.60;;;;;;5051413;28;20212;-81
2022/08/21 03:34:59;;;;;;;;;;;;;;;;;;;;;
2022/08/21 03:37:31;;;;;;;3.05;0.70;;;19.30;93.70;;;;;;5061717;28;20212;-80
2022/08/21 03:40:16;;;;;;;1.77;0.68;;;19.30;95.00;;;;;;5044697;28;20651;-81
2022/08/21 03:45:50;;;;;;;3.28;0.63;;;19.50;95.60;;;;;;5046768;28;20298;-81
2022/08/21 03:48:21;;;;;;;1.45;0.68;;;19.50;94.80;;;;;;5052095;28;20207;-80
2022/08/21 03:50:54;;;;;;;2.75;0.60;;;19.40;94.40;;;;;;5051020;28;20216;-80
2022/08/21 03:53:25;;;;;;;1.83;0.40;;;19.40;94.40;;;;;;5036267;28;20667;-81
2022/08/21 03:55:58;;;;;;;2.20;0.70;;;19.60;94.30;;;;;;5046022;28;20287;-80
2022/08/21 03:58:30;;;;;;;1.90;0.68;;;19.60;93.00;;;;;;5051437;28;20653;-82
2022/08/21 04:01:04;;;;;;;1.40;0.57;;;19.60;89.20;;;;;;5049551;28;20224;-81
2022/08/21 04:03:36;;;;;;;1.20;0.50;;;19.60;91.20;;;;;;5052174;28;20233;-81
2022/08/21 04:06:08;;;;;;;1.85;0.82;;;19.50;88.60;;;;;;5048909;28;20225;-81
2022/08/21 04:08:38;;;;;;;1.65;0.68;;;19.50;87.60;;;;;;5050972;28;20259;-81
2022/08/21 04:11:12;;;;;;;1.90;0.55;;;19.40;89.70;;;;;;5036065;28;20235;-80
2022/08/21 04:13:43;;;;;;;1.00;0.50;;;19.40;89.10;;;;;;5040291;28;20714;-81
2022/08/21 04:16:14;;;;;;;2.38;0.50;;;19.40;89.50;;;;;;5049219;28;20208;-82
2022/08/21 04:18:45;;;;;;;1.38;0.70;;;19.40;90.50;;;;;;5051076;28;20203;-82
2022/08/21 04:21:16;;;;;;;1.40;0.60;;;19.40;90.60;;;;;;5048365;28;20196;-83
2022/08/21 04:23:47;;;;;;;1.25;0.60;;;19.50;91.40;;;;;;5031040;28;20225;-83
2022/08/21 04:26:19;;;;;;;0.70;0.47;;;19.50;91.20;;;;;;5045562;28;20307;-86
2022/08/21 04:28:50;;;;;;;1.70;0.80;;;19.50;90.10;;;;;;5032720;28;20755;-85
2022/08/21 04:31:21;;;;;;;1.65;0.60;;;19.50;88.20;;;;;;5048378;28;20203;-82
2022/08/21 04:33:52;;;;;;;1.17;0.40;;;19.40;79.10;;;;;;5050871;28;20557;-84
2022/08/21 04:36:23;;;;;;;1.95;0.63;;;19.30;77.30;;;;;;5049239;28;20193;-84
2022/08/21 04:38:54;;;;;;;5.57;1.17;;;19.30;89.30;;;;;;5070756;28;20204;-83
2022/08/21 04:41:27;;;;;;;5.53;1.35;;;19.10;99.90;;;;;;5070611;28;20218;-83
2022/08/21 04:43:58;;;;;;;2.35;0.90;;;19.00;99.90;;;;;;5046231;28;20748;-80
2022/08/21 04:46:29;;;;;;;5.57;1.00;;;18.90;99.90;;;;;;5030067;28;20193;-81
2022/08/21 04:49:00;;;;;;;4.95;0.88;;;18.70;99.90;;;;;;5046919;28;20609;-81
2022/08/21 04:51:34;;;;;;;2.70;0.98;;;18.70;99.90;;;;;;5046144;28;20200;-81
2022/08/21 04:54:10;;;;;;;3.83;0.95;;;18.70;99.90;;;;;;5057919;28;20199;-80
2022/08/21 04:56:45;;;;;;;2.53;0.73;;;18.70;99.90;;;;;;5070245;28;20196;-80
2022/08/21 04:59:19;;;;;;;4.15;1.05;;;18.70;99.90;;;;;;5054990;28;20326;-83
2022/08/21 05:01:51;;;;;;;2.53;1.10;;;18.70;99.90;;;;;;5031626;28;20207;-82
2022/08/21 05:04:27;;;;;;;3.35;0.98;;;18.70;99.90;;;;;;5030189;28;20227;-82
2022/08/21 05:07:12;;;;;;;3.42;0.95;;;18.60;99.90;;;;;;5033710;28;20586;-80
2022/08/21 05:09:43;;;;;;;5.68;0.95;;;18.60;99.90;;;;;;5030737;28;20224;-81
2022/08/21 05:12:16;;;;;;;1.45;0.80;;;18.60;99.90;;;;;;5047632;28;20211;-82
2022/08/21 05:14:47;;;;;;;4.70;1.10;;;18.50;99.90;;;;;;5050457;28;20659;-79
2022/08/21 05:17:18;;;;;;;2.63;0.93;;;18.50;99.90;;;;;;5048903;28;20207;-80
2022/08/21 05:19:49;;;;;;;4.70;1.00;;;18.50;99.90;;;;;;5051410;28;20701;-79
2022/08/21 05:22:24;;;;;;;3.60;0.80;;;18.50;99.90;;;;;;5048118;28;20207;-79
2022/08/21 05:24:55;;;;;;;4.68;1.10;;;18.30;99.90;;;;;;5047275;28;20709;-80
2022/08/21 05:27:29;;;;;;;8.35;0.85;;;18.20;99.90;;;;;;5045957;28;20568;-80
2022/08/21 05:30:00;;;;;;;2.50;0.90;;;18.20;99.90;;;;;;5047331;28;20250;-80
2022/08/21 05:32:31;;;;;;;4.30;1.20;;;18.20;99.90;;;;;;5049795;28;20677;-80
2022/08/21 05:35:15;;;;;;;2.58;0.98;;;18.20;99.90;;;;;;5038283;28;20216;-81
2022/08/21 05:37:46;;;;;;;4.30;1.00;;;18.20;99.90;;;;;;5040527;28;20196;-80
2022/08/21 05:40:17;;;;;;;3.97;1.13;;;18.10;99.90;;;;;;5050322;28;20199;-80
2022/08/21 05:42:50;;;;;;;4.95;1.10;;;18.00;99.90;;;;;;5049860;28;20228;-78
2022/08/21 05:45:21;;;;;;;2.53;0.90;;;18.10;99.90;;;;;;5059266;28;20202;-81
2022/08/21 05:47:52;;;;;;;3.20;1.00;;;18.10;99.90;;;;;;5045766;28;20761;-81
2022/08/21 05:50:23;;;;;;;3.22;1.13;;;18.10;99.90;;;;;;5039775;28;20203;-83
2022/08/21 05:52:54;;;;;;;4.43;0.93;;;18.10;99.90;;;;;;5043157;28;20216;-82
2022/08/21 05:55:25;;;;;;;4.78;0.98;;;18.20;99.90;;;;;;5051250;28;20197;-83
2022/08/21 05:57:58;;;;;;;4.75;1.00;;;18.20;99.90;;;;;;5053954;28;20197;-81
2022/08/21 06:00:29;;;;;;;4.50;1.23;;;18.20;99.90;;;;;;5053615;28;20609;-81
2022/08/21 06:03:03;;;;;;;6.35;0.90;;;18.10;99.90;;;;;;5054008;28;20208;-80
2022/08/21 06:05:34;;;;;;;2.70;1.00;;;18.10;99.90;;;;;;5054178;28;20192;-81
2022/08/21 06:08:05;;;;;;;5.53;0.90;;;18.00;99.90;;;;;;5051095;28;20228;-82
2022/08/21 06:10:36;;;;;;;5.40;1.30;;;18.10;99.90;;;;;;5045969;28;20196;-81
2022/08/21 06:13:09;;;;;;;4.90;1.20;;;18.20;99.90;;;;;;5044733;28;20201;-81
2022/08/21 06:15:40;;;;;;;2.00;1.10;;;18.10;99.90;;;;;;5033735;28;20201;-82
2022/08/21 06:18:10;;;;;;;3.55;1.00;;;18.20;99.90;;;;;;5051232;28;20675;-81
2022/08/21 06:20:42;;;;;;;3.10;0.98;;;18.40;99.90;;;;;;5044625;28;20209;-80
2022/08/21 06:23:12;;;;;;;5.20;0.98;;;18.50;99.90;;;;;;5049527;28;20204;-82
2022/08/21 06:25:43;;;;;;;4.05;1.02;;;18.60;99.90;;;;;;5043705;28;20207;-82
2022/08/21 06:28:16;;;;;;;4.03;1.00;;;18.60;99.90;;;;;;5035545;28;20197;-83
2022/08/21 06:30:47;;;;;;;4.35;1.00;;;18.50;99.90;;;;;;5049271;28;20235;-82
2022/08/21 06:33:18;;;;;;;9.32;1.23;;;18.50;99.90;;;;;;5053506;28;20200;-81
2022/08/21 06:35:49;;;;;;;4.75;0.95;;;18.40;99.90;;;;;;5054064;28;20207;-80
2022/08/21 06:38:19;;;;;;;4.82;1.27;;;18.50;99.90;;;;;;5050909;28;20689;-80
2022/08/21 06:40:50;;;;;;;3.20;1.10;;;18.60;99.90;;;;;;5052805;28;20197;-80
2022/08/21 06:43:23;;;;;;;3.55;1.20;;;18.70;99.90;;;;;;5052896;28;20244;-80
2022/08/21 06:45:54;;;;;;;3.28;0.93;;;18.70;99.90;;;;;;5070934;28;20268;-80
2022/08/21 06:48:25;;;;;;;2.20;0.85;;;18.70;99.90;;;;;;5052794;28;20243;-80
2022/08/21 06:50:56;;;;;;;2.53;0.80;;;18.60;99.90;;;;;;5058750;28;20287;-81
2022/08/21 06:53:27;;;;;;;3.65;1.15;;;18.60;99.90;;;;;;5052503;28;20571;-80
2022/08/21 06:55:58;;;;;;;4.10;1.13;;;18.30;99.90;;;;;;5052010;28;20193;-81
2022/08/21 06:58:30;;;;;;;3.45;1.08;;;18.10;99.90;;;;;;5053141;28;20205;-82
2022/08/21 07:01:01;;;;;;;4.63;1.20;;;17.90;99.90;;;;;;5052313;28;20200;-81
2022/08/21 07:03:35;;;;;;;2.08;0.98;;;17.80;99.90;;;;;;5052666;28;20254;-81
2022/08/21 07:06:06;;;;;;;2.05;0.98;;;17.70;99.90;;;;;;5052391;28;20283;-80
2022/08/21 07:08:38;;;;;;;3.17;0.93;;;17.70;99.90;;;;;;5050999;28;20205;-80
2022/08/21 07:11:15;;;;;;;4.40;1.30;;;17.70;99.90;;;;;;5053298;28;20201;-80
2022/08/21 07:13:52;;;;;;;3.50;1.13;;;17.60;99.90;;;;;;5052518;28;20203;-80
2022/08/21 07:16:23;;;;;;;2.53;1.00;;;17.50;99.90;;;;;;5046089;28;20284;-80
2022/08/21 07:18:54;;;;;;;3.28;1.10;;;17.50;99.90;;;;;;5048559;28;20211;-84
2022/08/21 07:21:25;;;;;;;5.57;1.40;;;17.40;99.90;;;;;;5065038;28;20227;-80
2022/08/21 07:23:56;;;;;;;2.55;1.02;;;17.30;99.90;;;;;;5050022;28;20220;-80
2022/08/21 07:26:29;;;;;;;2.58;1.13;;;17.30;99.90;;;;;;5052665;28;20249;-81
2022/08/21 07:29:02;;;;;;;4.13;1.10;;;17.30;99.90;;;;;;5052401;28;20711;-80
2022/08/21 07:31:33;;;;;;;2.63;1.08;;;17.20;99.90;;;;;;5050099;28;20287;-79
2022/08/21 07:34:03;;;;;;;1.95;1.33;;;17.20;99.90;;;;;;5039758;28;20216;-81
2022/08/21 07:36:34;;;;;;;3.92;1.30;;;17.00;99.90;;;;;;5046208;28;20207;-82
2022/08/21 07:39:05;;;;;;;3.95;1.00;;;17.00;99.90;;;;;;5052082;28;20199;-82
2022/08/21 07:41:37;;;;;;;3.30;0.70;;;16.90;99.90;;;;;;5051363;28;20197;-81
2022/08/21 07:44:10;;;;;;;2.65;0.70;;;16.90;99.90;;;;;;5059397;28;20236;-82
2022/08/21 07:46:41;;;;;;;3.38;1.23;;;16.80;99.90;;;;;;5058969;28;20200;-81
2022/08/21 07:49:12;;;;;;;3.22;0.90;;;16.80;99.90;;;;;;5044973;28;20296;-82
2022/08/21 07:51:43;;;;;;;2.42;1.17;;;16.70;99.90;;;;;;5044760;28;20196;-82
2022/08/21 07:54:14;;;;;;;3.08;1.30;;;16.70;99.90;;;;;;5051317;28;20681;-82
2022/08/21 07:56:45;;;;;;;2.70;1.30;;;16.60;99.90;;;;;;5051600;28;20271;-82
2022/08/21 07:59:18;;;;;;;3.45;1.40;;;16.60;99.90;;;;;;5051633;28;20581;-82
2022/08/21 08:01:49;;;;;;;5.18;1.17;;;16.60;99.90;;;;;;5051642;28;20200;-81
2022/08/21 08:04:20;;;;;;;3.00;1.10;;;16.60;99.90;;;;;;5051603;28;20589;-81
2022/08/21 08:06:51;;;;;;;2.40;0.95;;;16.50;99.90;;;;;;5049275;28;20199;-81
2022/08/21 08:09:21;;;;;;;2.85;1.08;;;16.50;99.90;;;;;;5051200;28;20197;-81
2022/08/21 08:11:52;;;;;;;3.28;1.10;;;16.50;99.90;;;;;;5051354;28;20640;-81
2022/08/21 08:14:25;;;;;;;1.48;1.00;;;16.40;99.90;;;;;;5051454;28;20200;-81
2022/08/21 08:16:56;;;;;;;2.03;1.10;;;16.40;99.90;;;;;;5050085;28;20210;-81
2022/08/21 08:19:27;;;;;;;4.25;1.33;;;16.40;99.90;;;;;;5069261;28;20196;-81
2022/08/21 08:21:58;;;;;;;5.35;1.75;;;16.40;99.90;;;;;;5065249;28;20209;-81
2022/08/21 08:24:28;;;;;;;6.57;1.80;;;16.40;99.90;;;;;;5044191;28;20400;-81
2022/08/21 08:27:02;;;;;;;5.45;1.27;;;16.40;99.90;;;;;;5031135;28;20574;-81
2022/08/21 08:29:34;;;;;;;3.80;1.20;;;16.30;99.90;;;;;;5030990;28;20313;-81
2022/08/21 08:32:07;;;;;;;2.92;1.45;;;16.30;99.90;;;;;;5048157;28;20227;-78
2022/08/21 08:34:38;;;;;;;5.82;1.70;;;16.30;99.90;;;;;;5051840;28;20311;-79
2022/08/21 08:37:10;;;;;;;4.18;1.45;;;16.30;99.90;;;;;;5048862;28;20715;-78
2022/08/21 08:39:43;;;;;;;6.10;1.77;;;16.30;99.90;;;;;;5051040;28;20192;-79
2022/08/21 08:42:17;;;;;;;5.78;1.58;;;16.30;99.90;;;;;;5049473;28;20228;-78
2022/08/21 08:44:51;;;;;;;3.42;1.60;;;16.20;99.90;;;;;;5046196;28;20224;-79
2022/08/21 08:47:22;;;;;;;3.80;1.90;;;16.30;99.90;;;;;;5046006;28;20204;-81
2022/08/21 08:50:05;;;;;;;5.03;2.13;;;16.30;99.90;;;;;;5050679;28;20207;-81
2022/08/21 08:52:38;;;;;;;3.15;1.63;;;16.20;99.90;;;;;;5048874;28;20199;-80
2022/08/21 08:55:11;;;;;;;5.80;1.77;;;16.20;99.90;;;;;;5051332;28;20214;-80
2022/08/21 08:57:46;;;;;;;4.82;1.65;;;16.10;99.90;;;;;;5049904;28;20204;-81
2022/08/21 09:00:21;;;;;;;5.47;1.52;;;16.10;99.90;;;;;;5035011;28;20199;-80
2022/08/21 09:02:56;;;;;;;5.50;1.77;;;16.10;99.90;;;;;;5029914;28;20304;-80
2022/08/21 09:05:32;;;;;;;3.25;1.55;;;16.10;99.90;;;;;;5035864;28;20216;-80
2022/08/21 09:08:35;;;;;;;2.22;1.10;;;16.10;99.90;;;;;;5041208;28;20196;-80
2022/08/21 09:11:10;;;;;;;6.38;1.40;;;16.00;99.90;;;;;;5030960;28;20196;-80
2022/08/21 09:13:58;;;;;;;3.08;1.13;;;16.00;99.90;;;;;;5042541;28;20196;-80
2022/08/21 09:16:40;;;;;;;3.65;1.42;;;16.00;99.90;;;;;;5034664;28;20205;-80
2022/08/21 09:19:24;;;;;;;5.78;1.40;;;16.00;99.90;;;;;;5030200;28;20337;-80
2022/08/21 09:22:03;;;;;;;5.45;1.50;;;16.00;99.90;;;;;;5037652;28;20196;-79
2022/08/21 09:24:43;;;;;;;2.10;1.30;;;16.00;99.90;;;;;;5030156;28;20221;-80
2022/08/21 09:27:16;;;;;;;4.65;2.08;;;16.00;99.90;;;;;;5047536;28;20216;-81
2022/08/21 09:29:50;;;;;;;5.28;2.40;;;15.90;99.90;;;;;;5049961;28;20232;-80
2022/08/21 09:32:24;;;;;;;4.82;2.15;;;15.90;99.90;;;;;;5046308;28;20201;-80
2022/08/21 09:35:09;;;;;;;5.78;2.30;;;15.90;99.90;;;;;;5034204;28;20204;-81
2022/08/21 09:37:52;;;;;;;6.20;2.03;;;15.90;99.90;;;;;;5041203;28;20193;-80
2022/08/21 09:40:33;;;;;;;5.47;2.45;;;15.90;99.90;;;;;;5053952;28;20570;-80
2022/08/21 09:43:07;;;;;;;6.45;2.97;;;15.80;99.90;;;;;;5060441;28;20231;-81
2022/08/21 09:45:38;;;;;;;4.32;2.40;;;15.80;99.90;;;;;;5050367;28;20230;-81
2022/08/21 09:48:21;;;;;;;4.93;2.72;;;15.80;99.90;;;;;;5054189;28;20196;-80
2022/08/21 09:50:56;;;;;;;5.28;2.17;;;15.80;99.90;;;;;;5034405;28;20205;-81
2022/08/21 09:53:29;;;;;;;4.38;2.25;;;15.80;99.90;;;;;;5047994;28;20192;-81
2022/08/21 09:58:50;;;;;;;4.80;2.88;;;15.70;99.90;;;;;;5034703;28;20196;-81
2022/08/21 10:01:23;;;;;;;6.05;1.98;;;15.70;99.90;;;;;;5043183;28;20204;-81
2022/08/21 10:04:06;;;;;;;4.28;2.35;;;15.70;99.90;;;;;;5053746;28;20200;-81
2022/08/21 10:06:37;;;;;;;6.68;4.00;;;15.70;99.90;;;;;;5045938;28;20256;-82
2022/08/21 10:09:10;;;;;;;5.13;3.10;;;15.70;99.90;;;;;;5052870;28;20200;-82
2022/08/21 10:11:41;;;;;;;6.10;1.90;;;15.70;99.90;;;;;;5054014;28;20534;-80
2022/08/21 10:14:24;;;;;;;6.72;2.40;;;15.60;99.90;;;;;;5038092;28;20197;-80
2022/08/21 10:17:04;;;;;;;5.13;1.60;;;15.60;99.90;;;;;;5035146;28;20219;-80
2022/08/21 10:19:45;;;;;;;5.00;1.20;;;15.60;99.90;;;;;;5050144;28;20717;-80
2022/08/21 10:22:29;;;;;;;3.88;1.23;;;15.60;99.90;;;;;;5051548;28;20682;-81
2022/08/21 10:25:11;;;;;;;4.35;1.30;;;15.60;99.90;;;;;;5052937;28;21423;-80
2022/08/21 10:27:52;;;;;;;3.58;1.70;;;15.70;99.90;;;;;;5052182;28;20563;-80
2022/08/21 10:30:29;;;;;;;4.20;2.05;;;15.70;99.90;;;;;;5049498;28;20691;-80
2022/08/21 10:33:15;;;;;;;3.47;1.80;;;15.70;99.90;;;;;;5053642;28;20204;-81
2022/08/21 10:35:57;;;;;;;6.05;2.10;;;15.60;99.90;;;;;;5048593;28;20197;-80
2022/08/21 10:38:52;;;;;;;7.78;2.40;;;15.60;99.90;;;;;;5059418;28;20197;-81
2022/08/21 10:41:30;;;;;;;7.03;3.70;;;15.60;99.90;;;;;;5052235;28;20216;-81
2022/08/21 10:44:14;;;;;;;5.07;2.40;;;15.60;99.90;;;;;;5048114;28;20233;-81
2022/08/21 10:46:56;;;;;;;6.03;2.33;;;15.60;99.90;;;;;;5064656;28;20203;-81
2022/08/21 10:49:35;;;;;;;4.70;1.77;;;15.60;99.90;;;;;;5067249;28;20254;-81
2022/08/21 10:52:25;;;;;;;3.17;1.70;;;15.60;99.90;;;;;;5051127;28;20784;-81
2022/08/21 10:54:58;;;;;;;6.80;3.78;;;15.60;99.90;;;;;;5032862;28;20197;-82
2022/08/21 10:57:39;;;;;;;3.25;2.30;;;15.50;99.90;;;;;;5032718;28;20197;-81
2022/08/21 11:00:14;;;;;;;5.30;2.10;;;15.50;99.90;;;;;;5032889;28;20243;-82
2022/08/21 11:02:50;;;;;;;4.93;1.42;;;15.50;99.90;;;;;;5037543;28;20222;-82
2022/08/21 11:05:26;;;;;;;2.10;1.10;;;15.50;99.90;;;;;;5052691;28;20556;-82
2022/08/21 11:08:06;;;;;;;3.78;1.70;;;15.40;99.90;;;;;;5050510;28;20669;-82
2022/08/21 11:10:43;;;;;;;4.57;1.23;;;15.50;99.90;;;;;;5052923;28;20200;-81
2022/08/21 11:13:21;;;;;;;2.65;1.60;;;15.40;99.90;;;;;;5052535;28;20201;-81
2022/08/21 11:15:58;;;;;;;4.22;1.27;;;15.50;99.90;;;;;;5033501;28;20201;-82
2022/08/21 11:18:33;;;;;;;3.60;1.20;;;15.50;99.90;;;;;;5046501;28;20197;-82
2022/08/21 11:21:11;;;;;;;2.58;0.90;;;15.40;99.90;;;;;;5050739;28;20201;-82
2022/08/21 11:23:47;;;;;;;1.80;1.23;;;15.40;99.90;;;;;;5053296;28;20685;-82
2022/08/21 11:26:23;;;;;;;3.50;1.20;;;15.40;99.90;;;;;;5057408;28;20235;-82
2022/08/21 11:29:00;;;;;;;2.75;0.98;;;15.40;99.90;;;;;;5052083;28;20307;-81
2022/08/21 11:31:46;;;;;;;2.75;0.90;;;15.50;99.90;;;;;;5041736;28;20206;-80
2022/08/21 11:34:32;;;;;;;2.83;1.10;;;15.40;99.90;;;;;;5032340;28;20197;-81
2022/08/21 11:37:20;;;;;;;2.15;1.20;;;15.40;99.90;;;;;;5031716;28;20209;-81
2022/08/21 11:39:59;;;;;;;4.07;1.20;;;15.40;99.90;;;;;;5047563;28;20200;-81
2022/08/21 11:42:47;;;;;;;3.03;1.00;;;15.40;99.90;;;;;;5037943;28;20705;-81
2022/08/21 11:45:28;;;;;;;4.93;1.10;;;15.40;99.90;;;;;;5046244;28;20539;-79
2022/08/21 11:48:07;;;;;;;3.42;0.90;;;15.40;99.90;;;;;;5050687;28;20210;-80
2022/08/21 11:50:41;;;;;;;4.32;0.98;;;15.40;99.90;;;;;;5050772;28;20230;-80
2022/08/21 11:53:18;;;;;;;6.97;1.25;;;15.40;99.90;;;;;;5049178;28;20219;-80
2022/08/21 11:55:56;;;;;;;1.40;0.85;;;15.40;99.90;;;;;;5051341;28;20200;-80
2022/08/21 11:58:31;;;;;;;4.63;1.20;;;15.30;99.90;;;;;;5046392;28;20200;-81
2022/08/21 12:01:07;;;;;;;4.35;1.40;;;15.30;99.90;;;;;;5051111;28;20200;-80
2022/08/21 12:03:41;;;;;;;4.57;1.17;;;15.40;99.90;;;;;;5040479;28;20197;-81
2022/08/21 12:06:13;;;;;;;3.80;1.27;;;15.30;99.90;;;;;;5045815;28;20311;-82
2022/08/21 12:08:46;;;;;;;4.25;1.25;;;15.30;99.90;;;;;;5049163;28;20200;-81
2022/08/21 12:11:29;;;;;;;3.67;0.90;;;15.30;99.90;;;;;;5051430;28;20201;-81
2022/08/21 12:14:03;;;;;;;3.97;1.10;;;15.30;99.90;;;;;;5050994;28;20586;-81
2022/08/21 12:16:35;;;;;;;4.72;1.00;;;15.30;99.90;;;;;;5031696;28;20225;-81
2022/08/21 12:19:12;;;;;;;3.58;1.10;;;15.30;99.90;;;;;;5037692;28;20204;-81
2022/08/21 12:21:55;;;;;;;4.18;1.25;;;15.30;99.90;;;;;;5049669;28;20565;-83
2022/08/21 12:24:39;;;;;;;2.63;1.20;;;15.30;99.90;;;;;;5049321;28;20206;-81
2022/08/21 12:27:26;;;;;;;3.03;1.00;;;15.30;99.90;;;;;;5051252;28;20228;-81
2022/08/21 12:30:01;;;;;;;3.90;1.42;;;15.30;99.90;;;;;;5049225;28;20562;-81
2022/08/21 12:32:44;;;;;;;3.08;0.90;;;15.30;99.90;;;;;;5048427;28;20238;-81
2022/08/21 12:35:18;;;;;;;3.13;0.98;;;15.30;99.90;;;;;;5051174;28;20208;-81
2022/08/21 12:37:54;;;;;;;4.00;1.13;;;15.30;99.90;;;;;;5049259;28;20196;-81
2022/08/21 12:40:28;;;;;;;2.70;0.90;;;15.20;99.90;;;;;;5042445;28;20199;-81
2022/08/21 12:43:04;;;;;;;4.97;1.35;;;15.20;99.90;;;;;;5030897;28;20264;-81
2022/08/21 12:45:37;;;;;;;4.90;1.20;;;15.20;99.90;;;;;;5030616;28;20235;-81
2022/08/21 12:48:13;;;;;;;4.47;1.30;;;15.10;99.90;;;;;;5039756;28;20200;-81
2022/08/21 12:50:47;;;;;;;3.92;1.00;;;15.10;99.90;;;;;;5050495;28;20208;-81
2022/08/21 12:53:26;;;;;;;3.85;1.52;;;15.10;99.90;;;;;;5047477;28;20196;-81
2022/08/21 12:56:01;;;;;;;4.53;1.50;;;15.10;99.90;;;;;;5048688;28;20204;-81
2022/08/21 12:58:34;;;;;;;4.53;1.50;;;15.00;99.90;;;;;;5039952;28;20644;-80
2022/08/21 13:01:08;;;;;;;4.47;1.73;;;15.00;99.90;;;;;;5050649;28;20203;-80
2022/08/21 13:03:40;;;;;;;6.55;1.38;;;15.00;99.90;;;;;;5031785;28;20203;-80
2022/08/21 13:06:17;;;;;;;5.60;1.17;;;15.00;99.90;;;;;;5031269;28;20290;-81
2022/08/21 13:08:50;;;;;;;5.03;1.58;;;14.90;99.90;;;;;;5044893;28;20261;-79
2022/08/21 13:11:24;;;;;;;3.30;1.17;;;14.90;99.90;;;;;;5050428;28;20539;-80
2022/08/21 13:13:57;;;;;;;6.05;1.23;;;14.90;99.90;;;;;;5046572;28;20287;-80
2022/08/21 13:16:30;;;;;;;4.68;1.20;;;14.80;99.90;;;;;;5030623;28;20197;-80
2022/08/21 13:19:02;;;;;;;1.88;1.05;;;14.90;99.90;;;;;;5043937;28;20671;-83
2022/08/21 13:21:35;;;;;;;5.00;1.30;;;14.90;99.90;;;;;;5050218;28;20299;-82
2022/08/21 13:24:19;;;;;;;4.43;1.35;;;14.80;99.90;;;;;;5048287;28;20223;-82
2022/08/21 13:26:51;;;;;;;3.28;1.40;;;14.80;99.90;;;;;;5049849;28;20227;-81
2022/08/21 13:29:25;;;;;;;4.60;1.30;;;14.70;99.90;;;;;;5050544;28;20222;-82
2022/08/21 13:31:58;;;;;;;4.90;1.58;;;14.70;99.90;;;;;;5046307;28;20283;-81